Time;durP1;ratioP1;P1;durP2;ratioP2;P2;SDS_P1;SDS_P2;PMS_P1;PMS_P2;Temp;Humidity;BMP_temperature;BMP_pressure;BME280_temperature;BME280_humidity;BME280_pressure;Samples;Min_cycle;Max_cycle;Signal;HPM_P1;HPM_P2
2022/03/14 00:02:23;;;;;;;1.98;1.30;;;8.70;61.80;;;;;;5047456;28;20025;-86
2022/03/14 00:04:51;;;;;;;1.85;1.15;;;8.70;61.80;;;;;;5046367;28;20040;-87
2022/03/14 00:07:18;;;;;;;1.55;1.40;;;8.70;61.80;;;;;;5045708;28;20031;-86
2022/03/14 00:09:44;;;;;;;1.48;1.15;;;8.70;61.80;;;;;;5046844;28;20044;-86
2022/03/14 00:12:13;;;;;;;2.22;1.35;;;8.70;61.80;;;;;;5046804;28;20024;-87
2022/03/14 00:14:39;;;;;;;1.85;1.20;;;8.60;61.70;;;;;;5045985;28;20044;-86
2022/03/14 00:17:11;;;;;;;1.58;1.10;;;8.60;61.70;;;;;;5046947;28;20025;-86
2022/03/14 00:19:39;;;;;;;2.08;1.55;;;8.60;61.70;;;;;;5046388;28;20052;-87
2022/03/14 00:22:08;;;;;;;3.65;1.48;;;8.60;62.30;;;;;;5047224;28;20036;-87
2022/03/14 00:24:34;;;;;;;1.52;1.20;;;8.50;61.60;;;;;;5048030;28;20499;-91
2022/03/14 00:27:00;;;;;;;1.45;1.23;;;8.50;61.60;;;;;;5031235;28;20044;-90
2022/03/14 00:29:28;;;;;;;1.83;1.40;;;8.50;61.60;;;;;;5047135;28;20112;-91
2022/03/14 00:31:54;;;;;;;1.48;1.13;;;8.50;61.60;;;;;;5047367;28;20069;-90
2022/03/14 00:34:20;;;;;;;1.98;1.30;;;8.50;61.60;;;;;;5051709;28;20084;-91
2022/03/14 00:36:46;;;;;;;1.77;1.00;;;8.50;61.60;;;;;;5051736;28;20057;-91
2022/03/14 00:39:12;;;;;;;2.28;1.35;;;8.50;61.90;;;;;;5051653;28;20029;-91
2022/03/14 00:41:39;;;;;;;2.78;1.42;;;8.40;61.50;;;;;;5056712;28;20032;-93
2022/03/14 00:44:05;;;;;;;1.33;1.05;;;8.40;61.50;;;;;;5058230;28;20040;-93
2022/03/14 00:46:35;;;;;;;4.00;1.27;;;8.40;61.50;;;;;;5052972;28;20079;-93
2022/03/14 00:49:02;;;;;;;1.30;1.20;;;8.40;61.50;;;;;;5055236;28;20163;-93
2022/03/14 00:51:28;;;;;;;2.65;1.10;;;8.30;61.40;;;;;;5055370;28;20049;-94
2022/03/14 00:53:54;;;;;;;1.75;1.63;;;8.30;61.40;;;;;;5056369;28;20041;-92
2022/03/14 00:56:20;;;;;;;2.28;1.60;;;8.30;61.50;;;;;;5053438;28;20443;-91
2022/03/14 00:58:47;;;;;;;1.48;1.10;;;8.20;61.30;;;;;;5052969;28;20025;-93
2022/03/14 01:01:13;;;;;;;2.13;1.33;;;8.20;61.40;;;;;;5054075;28;20032;-94
2022/03/14 01:03:39;;;;;;;3.83;1.20;;;8.20;61.40;;;;;;5052479;28;20035;-92
2022/03/14 01:06:05;;;;;;;1.25;1.13;;;8.20;61.40;;;;;;5052522;28;20025;-92
2022/03/14 01:08:31;;;;;;;2.38;1.30;;;8.20;61.40;;;;;;5051169;28;20293;-90
2022/03/14 01:10:56;;;;;;;2.35;1.33;;;8.20;61.40;;;;;;5051151;28;20032;-88
2022/03/14 01:13:22;;;;;;;2.25;1.60;;;8.20;61.50;;;;;;5051420;28;20033;-90
2022/03/14 01:15:49;;;;;;;1.85;1.20;;;8.20;61.50;;;;;;5050337;28;20033;-89
2022/03/14 01:18:14;;;;;;;2.00;1.70;;;8.20;61.40;;;;;;5052033;28;20498;-89
2022/03/14 01:20:41;;;;;;;2.20;1.38;;;8.20;61.40;;;;;;5052695;28;20152;-89
2022/03/14 01:23:07;;;;;;;3.33;2.03;;;8.20;61.40;;;;;;5051125;28;20040;-87
2022/03/14 01:25:33;;;;;;;1.50;1.40;;;8.20;61.40;;;;;;5051367;28;20033;-90
2022/03/14 01:27:59;;;;;;;2.67;1.42;;;8.10;61.20;;;;;;5049872;28;20057;-88
2022/03/14 01:30:25;;;;;;;1.55;1.42;;;8.10;61.20;;;;;;5060709;28;20218;-93
2022/03/14 01:32:51;;;;;;;2.63;1.17;;;8.10;61.20;;;;;;5060993;28;20025;-94
2022/03/14 01:35:20;;;;;;;2.83;1.60;;;8.10;61.20;;;;;;5061291;28;20048;-93
2022/03/14 01:37:49;;;;;;;2.42;2.22;;;8.10;61.20;;;;;;5059866;28;20695;-96
2022/03/14 01:40:17;;;;;;;2.30;1.40;;;8.10;61.30;;;;;;5061434;28;20063;-96
2022/03/14 01:42:43;;;;;;;2.47;1.48;;;8.00;61.10;;;;;;5063295;28;20036;-95
2022/03/14 01:45:10;;;;;;;2.28;1.67;;;8.00;61.20;;;;;;5064201;28;20029;-95
2022/03/14 01:47:38;;;;;;;1.48;1.35;;;8.00;61.20;;;;;;5055588;28;20048;-93
2022/03/14 01:50:06;;;;;;;3.13;1.33;;;8.00;61.20;;;;;;5056178;28;20029;-94
2022/03/14 01:52:32;;;;;;;2.05;1.70;;;7.90;61.10;;;;;;5055380;28;20048;-93
2022/03/14 01:54:58;;;;;;;2.15;1.67;;;7.90;61.10;;;;;;5058461;28;20495;-96
2022/03/14 01:57:25;;;;;;;3.03;1.80;;;7.90;61.10;;;;;;5059324;28;20395;-95
2022/03/14 01:59:51;;;;;;;2.85;1.58;;;7.90;61.20;;;;;;5057339;28;20033;-94
2022/03/14 02:02:20;;;;;;;2.58;1.73;;;7.80;61.00;;;;;;5056913;28;20141;-92
2022/03/14 02:04:47;;;;;;;1.80;1.30;;;7.80;61.10;;;;;;5057673;28;20064;-94
2022/03/14 02:07:13;;;;;;;1.92;1.27;;;7.80;61.10;;;;;;5058210;28;20048;-94
2022/03/14 02:09:39;;;;;;;1.80;1.42;;;7.70;61.00;;;;;;5064975;28;20029;-94
2022/03/14 02:12:07;;;;;;;2.00;1.30;;;7.70;61.00;;;;;;5061965;28;20059;-95
2022/03/14 02:14:39;;;;;;;2.47;1.50;;;7.70;61.00;;;;;;5062330;28;20166;-93
2022/03/14 02:17:12;;;;;;;2.40;1.52;;;7.70;61.00;;;;;;5051503;28;20033;-90
2022/03/14 02:19:39;;;;;;;1.95;1.60;;;7.60;60.90;;;;;;5052646;28;20313;-94
2022/03/14 02:22:09;;;;;;;2.63;1.55;;;7.60;60.90;;;;;;5055043;28;20059;-89
2022/03/14 02:24:35;;;;;;;2.55;1.55;;;7.60;60.90;;;;;;5052839;28;20029;-94
2022/03/14 02:27:03;;;;;;;2.45;1.85;;;7.60;60.90;;;;;;5057644;28;20041;-89
2022/03/14 02:29:28;;;;;;;2.17;1.60;;;7.50;60.80;;;;;;5053919;28;20055;-90
2022/03/14 02:31:55;;;;;;;2.65;1.50;;;7.50;60.80;;;;;;5055264;28;20026;-93
2022/03/14 02:34:21;;;;;;;2.80;1.55;;;7.50;60.80;;;;;;5055857;28;20037;-93
2022/03/14 02:36:47;;;;;;;3.08;1.90;;;7.50;60.80;;;;;;5058080;28;20025;-93
2022/03/14 02:39:13;;;;;;;2.75;1.30;;;7.50;60.90;;;;;;5053052;28;20025;-92
2022/03/14 02:41:39;;;;;;;3.47;1.90;;;7.40;60.70;;;;;;5050300;28;20035;-90
2022/03/14 02:44:08;;;;;;;2.55;1.40;;;7.40;60.70;;;;;;5049284;28;20490;-90
2022/03/14 02:46:38;;;;;;;2.05;1.85;;;7.40;60.80;;;;;;5050800;28;20404;-89
2022/03/14 02:49:08;;;;;;;2.20;1.40;;;7.30;60.60;;;;;;5052880;28;20036;-90
2022/03/14 02:51:37;;;;;;;2.33;1.60;;;7.30;60.60;;;;;;5052422;28;20033;-89
2022/03/14 02:54:04;;;;;;;2.38;1.60;;;7.30;61.20;;;;;;5050041;28;20033;-87
2022/03/14 02:56:30;;;;;;;2.97;1.70;;;7.30;60.70;;;;;;5050399;28;20431;-87
2022/03/14 02:58:56;;;;;;;2.78;1.80;;;7.30;60.70;;;;;;5051615;28;20163;-88
2022/03/14 03:01:21;;;;;;;2.33;1.70;;;7.20;60.60;;;;;;5051329;28;20476;-87
2022/03/14 03:03:49;;;;;;;3.60;1.38;;;7.20;60.60;;;;;;5051413;28;20039;-88
2022/03/14 03:06:17;;;;;;;2.75;1.60;;;7.20;60.60;;;;;;5090314;28;20457;-96
2022/03/14 03:08:44;;;;;;;2.03;1.55;;;7.20;60.60;;;;;;5057567;28;20044;-94
2022/03/14 03:11:11;;;;;;;2.80;1.30;;;7.20;60.60;;;;;;5056412;28;20056;-93
2022/03/14 03:13:39;;;;;;;4.15;1.42;;;7.10;61.00;;;;;;5086055;28;20072;-92
2022/03/14 03:16:07;;;;;;;3.53;1.65;;;7.10;60.50;;;;;;5062739;28;20124;-95
2022/03/14 03:18:36;;;;;;;2.35;1.48;;;7.10;60.50;;;;;;5063238;28;20083;-96
2022/03/14 03:21:03;;;;;;;2.15;1.55;;;7.10;60.50;;;;;;5062911;28;20059;-96
2022/03/14 03:23:30;;;;;;;1.73;1.25;;;7.00;60.40;;;;;;5062137;28;20025;-95
2022/03/14 03:25:56;;;;;;;2.85;1.70;;;7.00;60.40;;;;;;5055864;28;20044;-95
2022/03/14 03:28:22;;;;;;;2.80;1.60;;;7.00;60.40;;;;;;5053508;28;20119;-94
2022/03/14 03:30:48;;;;;;;3.10;1.60;;;7.00;61.00;;;;;;5058295;28;20476;-95
2022/03/14 03:33:14;;;;;;;3.63;1.50;;;6.90;60.30;;;;;;5061848;28;20032;-95
2022/03/14 03:35:40;;;;;;;2.42;1.92;;;6.90;60.30;;;;;;5061524;28;20040;-93
2022/03/14 03:38:06;;;;;;;2.38;1.67;;;6.90;60.30;;;;;;5060919;28;20032;-93
2022/03/14 03:40:32;;;;;;;2.72;1.70;;;6.90;60.30;;;;;;5060181;28;20028;-94
2022/03/14 03:42:58;;;;;;;2.42;1.38;;;6.90;60.30;;;;;;5040461;28;20071;-94
2022/03/14 03:45:24;;;;;;;3.05;1.60;;;6.90;60.40;;;;;;5060609;28;20431;-94
2022/03/14 03:47:50;;;;;;;2.40;1.63;;;6.90;60.40;;;;;;5059942;28;20048;-94
2022/03/14 03:50:16;;;;;;;2.40;1.40;;;6.80;60.20;;;;;;5068820;28;20029;-95
2022/03/14 03:52:42;;;;;;;3.08;1.55;;;6.80;60.20;;;;;;5070037;28;20036;-96
2022/03/14 03:55:09;;;;;;;2.80;1.73;;;6.80;60.30;;;;;;5068371;28;20071;-95
2022/03/14 03:57:35;;;;;;;1.73;1.48;;;6.80;60.30;;;;;;5060822;28;20093;-96
2022/03/14 04:00:09;;;;;;;5.43;1.52;;;6.80;60.30;;;;;;5060535;28;20090;-96
2022/03/14 04:02:39;;;;;;;2.60;1.40;;;6.80;60.30;;;;;;5061978;28;20063;-94
2022/03/14 04:05:06;;;;;;;2.90;1.52;;;6.80;60.30;;;;;;5063473;28;20036;-95
2022/03/14 04:07:34;;;;;;;4.40;1.95;;;6.70;60.10;;;;;;5061527;28;20423;-95
2022/03/14 04:10:01;;;;;;;2.40;1.30;;;6.70;60.10;;;;;;5065314;28;20036;-95
2022/03/14 04:12:27;;;;;;;2.03;1.42;;;6.70;60.10;;;;;;5065887;28;20565;-94
2022/03/14 04:15:01;;;;;;;2.83;1.80;;;6.70;60.10;;;;;;5070878;28;20061;-94
2022/03/14 04:17:28;;;;;;;2.45;1.38;;;6.70;60.10;;;;;;5062199;28;20021;-93
2022/03/14 04:19:56;;;;;;;2.42;1.30;;;6.60;60.50;;;;;;5055504;28;20068;-91
2022/03/14 04:22:23;;;;;;;2.90;1.48;;;6.60;60.00;;;;;;5057940;28;20021;-95
2022/03/14 04:24:49;;;;;;;3.30;1.50;;;6.60;60.00;;;;;;5061097;28;20025;-94
2022/03/14 04:27:15;;;;;;;3.45;1.65;;;6.60;60.10;;;;;;5062717;28;20525;-94
2022/03/14 04:29:40;;;;;;;1.85;1.02;;;6.60;60.00;;;;;;5063423;28;20043;-95
2022/03/14 04:32:07;;;;;;;1.48;1.15;;;6.50;59.90;;;;;;5057040;28;20025;-95
2022/03/14 04:34:33;;;;;;;2.35;1.42;;;6.50;59.90;;;;;;5060685;28;20033;-96
2022/03/14 04:36:59;;;;;;;3.10;1.38;;;6.50;59.90;;;;;;5070538;28;20048;-96
2022/03/14 04:39:25;;;;;;;1.70;1.20;;;6.50;60.00;;;;;;5074377;28;20025;-94
2022/03/14 04:41:51;;;;;;;2.42;1.27;;;6.40;59.80;;;;;;5068912;28;20100;-95
2022/03/14 04:44:19;;;;;;;2.55;1.23;;;6.40;59.80;;;;;;5077009;28;20028;-95
2022/03/14 04:46:45;;;;;;;2.05;1.38;;;6.40;59.80;;;;;;5047313;28;20071;-91
2022/03/14 04:49:13;;;;;;;2.20;1.20;;;6.30;59.70;;;;;;5084410;28;20116;-95
2022/03/14 04:51:39;;;;;;;1.80;1.20;;;6.30;59.70;;;;;;5072613;28;20376;-93
2022/03/14 04:54:06;;;;;;;1.75;1.13;;;6.30;59.70;;;;;;5072247;28;20047;-95
2022/03/14 04:56:32;;;;;;;2.63;1.35;;;6.30;59.80;;;;;;5045301;28;20037;-95
2022/03/14 04:58:58;;;;;;;2.33;1.02;;;6.30;59.80;;;;;;5065208;28;20006;-95
2022/03/14 05:01:25;;;;;;;2.30;1.40;;;6.30;59.80;;;;;;5061240;28;20041;-94
2022/03/14 05:03:52;;;;;;;3.13;1.73;;;6.30;59.80;;;;;;5060596;28;20047;-94
2022/03/14 05:06:21;;;;;;;1.70;1.10;;;6.30;59.80;;;;;;5058755;28;20143;-95
2022/03/14 05:08:48;;;;;;;1.55;1.15;;;6.30;59.80;;;;;;5060069;28;20029;-92
2022/03/14 05:11:14;;;;;;;1.77;1.00;;;6.20;59.60;;;;;;5060420;28;20116;-94
2022/03/14 05:13:41;;;;;;;3.28;1.25;;;6.20;59.60;;;;;;5056778;28;20035;-94
2022/03/14 05:16:07;;;;;;;5.03;1.33;;;6.20;59.60;;;;;;5058485;28;20044;-94
2022/03/14 05:18:38;;;;;;;1.80;1.20;;;6.20;59.60;;;;;;5059356;28;20419;-94
2022/03/14 05:21:04;;;;;;;2.08;1.13;;;6.20;59.60;;;;;;5057271;28;20583;-92
2022/03/14 05:23:30;;;;;;;1.73;1.38;;;6.10;59.50;;;;;;5055072;28;20025;-93
2022/03/14 05:25:56;;;;;;;1.83;1.20;;;6.10;59.50;;;;;;5087643;28;20067;-91
2022/03/14 05:28:24;;;;;;;1.35;0.90;;;6.10;59.50;;;;;;5054467;28;20132;-91
2022/03/14 05:30:50;;;;;;;3.35;1.55;;;6.10;59.50;;;;;;5070634;28;20032;-92
2022/03/14 05:33:15;;;;;;;1.58;1.08;;;6.10;59.60;;;;;;5055343;28;20029;-94
2022/03/14 05:35:41;;;;;;;3.22;1.25;;;6.00;59.40;;;;;;5056017;28;20040;-91
2022/03/14 05:38:07;;;;;;;1.63;1.17;;;6.00;59.40;;;;;;5056765;28;20028;-94
2022/03/14 05:40:33;;;;;;;1.55;1.45;;;6.00;59.40;;;;;;5055931;28;20082;-90
2022/03/14 05:43:07;;;;;;;1.67;1.38;;;6.00;59.40;;;;;;5054006;28;20024;-92
2022/03/14 05:45:33;;;;;;;2.42;1.38;;;6.00;59.50;;;;;;5055538;28;20029;-94
2022/03/14 05:47:59;;;;;;;1.55;1.15;;;6.00;59.50;;;;;;5054045;28;20045;-93
2022/03/14 05:50:25;;;;;;;2.00;1.38;;;6.00;59.50;;;;;;5054934;28;20625;-92
2022/03/14 05:52:52;;;;;;;1.63;1.20;;;6.00;59.50;;;;;;5052588;28;20036;-94
2022/03/14 05:55:18;;;;;;;4.30;1.33;;;6.00;59.50;;;;;;5057066;28;20064;-92
2022/03/14 05:57:45;;;;;;;2.58;1.42;;;6.00;59.50;;;;;;5054390;28;20475;-95
2022/03/14 06:00:13;;;;;;;1.58;1.17;;;6.00;59.50;;;;;;5071571;28;20039;-93
2022/03/14 06:02:45;;;;;;;3.95;2.10;;;5.90;59.30;;;;;;5054409;28;20025;-91
2022/03/14 06:05:11;;;;;;;1.95;1.25;;;5.90;59.20;;;;;;5067230;28;20109;-91
2022/03/14 06:07:37;;;;;;;1.60;1.10;;;5.90;59.30;;;;;;5051951;28;20492;-89
2022/03/14 06:10:04;;;;;;;2.90;1.40;;;5.90;59.30;;;;;;5053699;28;20247;-92
2022/03/14 06:12:30;;;;;;;1.38;1.02;;;5.90;59.30;;;;;;5053911;28;20029;-92
2022/03/14 06:14:58;;;;;;;1.95;1.30;;;5.90;59.30;;;;;;5051588;28;20132;-93
2022/03/14 06:17:25;;;;;;;1.55;1.10;;;5.90;59.30;;;;;;5048811;28;20093;-87
2022/03/14 06:19:51;;;;;;;2.30;1.30;;;5.90;59.30;;;;;;5049738;28;20040;-89
2022/03/14 06:22:22;;;;;;;2.25;1.20;;;5.80;59.10;;;;;;5048840;28;20029;-90
2022/03/14 06:24:50;;;;;;;2.50;1.10;;;5.90;59.30;;;;;;5048107;28;20096;-90
2022/03/14 06:27:22;;;;;;;2.25;1.23;;;5.80;59.10;;;;;;5049559;28;20033;-85
2022/03/14 06:29:48;;;;;;;1.98;1.15;;;5.80;59.10;;;;;;5050465;28;20128;-90
2022/03/14 06:32:15;;;;;;;2.78;1.30;;;5.80;59.70;;;;;;5033608;28;20037;-85
2022/03/14 06:34:42;;;;;;;3.30;1.23;;;5.80;59.10;;;;;;5051181;28;20409;-82
2022/03/14 06:37:09;;;;;;;4.32;1.27;;;5.80;59.20;;;;;;5048027;28;20037;-81
2022/03/14 06:39:36;;;;;;;4.00;1.88;;;5.80;59.70;;;;;;5031590;28;20078;-84
2022/03/14 06:42:05;;;;;;;3.30;1.35;;;5.80;60.00;;;;;;5034353;28;20512;-84
2022/03/14 06:44:31;;;;;;;2.45;1.10;;;5.90;60.20;;;;;;5028083;28;20030;-84
2022/03/14 06:46:57;;;;;;;3.20;1.52;;;6.00;60.40;;;;;;5028082;28;20076;-80
2022/03/14 06:49:24;;;;;;;3.55;1.52;;;6.00;60.30;;;;;;5077098;28;20369;-85
2022/03/14 06:51:50;;;;;;;6.07;1.75;;;6.00;60.40;;;;;;5047299;28;20024;-85
2022/03/14 06:54:16;;;;;;;1.98;1.40;;;6.10;60.80;;;;;;5064021;28;20048;-86
2022/03/14 06:56:43;;;;;;;3.05;1.25;;;6.10;60.80;;;;;;5064192;28;20396;-86
2022/03/14 06:59:10;;;;;;;3.40;1.85;;;6.10;60.80;;;;;;5047062;28;20025;-85
2022/03/14 07:01:35;;;;;;;2.63;1.30;;;6.20;61.00;;;;;;5047834;28;20033;-86
2022/03/14 07:04:02;;;;;;;1.85;1.40;;;6.20;61.00;;;;;;5063640;28;20028;-83
2022/03/14 07:06:28;;;;;;;2.22;1.35;;;6.20;61.00;;;;;;5048076;28;20151;-87
2022/03/14 07:08:54;;;;;;;3.38;1.48;;;6.20;61.00;;;;;;5046644;28;20021;-89
2022/03/14 07:11:20;;;;;;;3.65;1.52;;;6.10;60.80;;;;;;5048471;28;20131;-83
2022/03/14 07:13:46;;;;;;;3.10;1.58;;;6.20;61.00;;;;;;5046583;28;20115;-82
2022/03/14 07:16:12;;;;;;;3.88;1.40;;;6.20;61.00;;;;;;5046258;28;20064;-87
2022/03/14 07:18:38;;;;;;;1.58;1.27;;;6.20;61.00;;;;;;5047628;28;20496;-89
2022/03/14 07:21:04;;;;;;;3.95;1.60;;;6.20;61.00;;;;;;5047410;28;20492;-89
2022/03/14 07:23:30;;;;;;;4.57;2.45;;;6.20;60.90;;;;;;5051332;28;20183;-91
2022/03/14 07:25:56;;;;;;;7.13;2.88;;;6.30;61.30;;;;;;5049208;28;20507;-89
2022/03/14 07:28:22;;;;;;;4.93;2.70;;;6.40;61.70;;;;;;5048576;28;20395;-83
2022/03/14 07:30:48;;;;;;;4.70;2.90;;;6.50;62.00;;;;;;5047776;28;20033;-89
2022/03/14 07:33:15;;;;;;;6.60;3.05;;;6.70;62.60;;;;;;5049545;28;20443;-87
2022/03/14 07:35:41;;;;;;;5.28;2.85;;;6.90;63.30;;;;;;5050243;28;20127;-83
2022/03/14 07:38:10;;;;;;;3.47;1.90;;;7.20;63.70;;;;;;5051774;28;20088;-90
2022/03/14 07:40:36;;;;;;;4.63;2.33;;;7.50;64.00;;;;;;5049217;28;20037;-90
2022/03/14 07:43:03;;;;;;;4.22;2.05;;;7.60;63.90;;;;;;5048330;28;20032;-87
2022/03/14 07:45:32;;;;;;;4.45;2.20;;;7.70;64.00;;;;;;5064468;28;20036;-89
2022/03/14 07:47:58;;;;;;;4.40;2.22;;;7.70;63.90;;;;;;5027969;28;20041;-90
2022/03/14 07:50:26;;;;;;;3.05;1.80;;;7.70;64.00;;;;;;5046076;28;20496;-87
2022/03/14 07:52:53;;;;;;;4.55;2.10;;;7.70;64.10;;;;;;5046901;28;20032;-88
2022/03/14 07:55:19;;;;;;;5.10;2.50;;;7.70;64.10;;;;;;5047196;28;20044;-89
2022/03/14 07:57:46;;;;;;;3.10;1.88;;;7.70;64.10;;;;;;5046490;28;20144;-89
2022/03/14 08:00:18;;;;;;;2.63;1.88;;;7.70;64.20;;;;;;5046377;28;20029;-90
2022/03/14 08:02:47;;;;;;;3.63;1.70;;;7.70;64.20;;;;;;5046213;28;20060;-89
2022/03/14 08:05:15;;;;;;;3.67;1.77;;;7.70;64.20;;;;;;5047612;28;20511;-87
2022/03/14 08:07:45;;;;;;;3.30;2.13;;;7.70;64.30;;;;;;5045331;28;20028;-88
2022/03/14 08:10:12;;;;;;;2.78;1.65;;;7.70;64.30;;;;;;5047264;28;20119;-91
2022/03/14 08:12:50;;;;;;;3.35;1.92;;;7.70;64.30;;;;;;5047115;28;20507;-89
2022/03/14 08:15:31;;;;;;;3.92;1.60;;;7.70;64.30;;;;;;5046781;28;20052;-89
2022/03/14 08:18:00;;;;;;;3.28;1.98;;;7.70;64.30;;;;;;5046059;28;20029;-90
2022/03/14 08:20:28;;;;;;;4.35;1.85;;;7.70;64.20;;;;;;5046248;28;20437;-86
2022/03/14 08:22:57;;;;;;;4.10;1.65;;;7.70;64.20;;;;;;5046649;28;20029;-88
2022/03/14 08:25:27;;;;;;;3.58;2.00;;;7.70;64.20;;;;;;5028350;28;20449;-86
2022/03/14 08:27:53;;;;;;;4.70;2.10;;;7.80;64.40;;;;;;5046449;28;20142;-87
2022/03/14 08:30:21;;;;;;;5.25;1.75;;;7.80;64.40;;;;;;5048031;28;20044;-80
2022/03/14 08:32:47;;;;;;;6.00;2.03;;;7.80;64.30;;;;;;5047347;28;20032;-86
2022/03/14 08:35:15;;;;;;;4.05;1.30;;;7.90;64.50;;;;;;5047815;28;20095;-83
2022/03/14 08:37:43;;;;;;;3.47;1.70;;;7.90;64.70;;;;;;5061359;28;20029;-86
2022/03/14 08:40:13;;;;;;;2.78;1.73;;;8.00;65.20;;;;;;5045543;28;20254;-80
2022/03/14 08:42:40;;;;;;;3.22;1.55;;;8.20;65.50;;;;;;5045412;28;20033;-82
2022/03/14 08:45:08;;;;;;;4.00;1.70;;;8.30;65.50;;;;;;5046744;28;20033;-81
2022/03/14 08:47:35;;;;;;;3.78;1.75;;;8.40;65.50;;;;;;5044799;28;20408;-81
2022/03/14 08:50:06;;;;;;;5.75;2.17;;;8.40;65.90;;;;;;5046651;28;20056;-80
2022/03/14 08:52:31;;;;;;;3.53;1.77;;;8.50;65.50;;;;;;5046967;28;20029;-81
2022/03/14 08:54:58;;;;;;;4.95;1.92;;;8.60;65.50;;;;;;5049429;28;20496;-82
2022/03/14 08:57:25;;;;;;;3.40;1.85;;;8.70;65.60;;;;;;5050451;28;20199;-81
2022/03/14 08:59:51;;;;;;;4.35;1.90;;;8.70;65.50;;;;;;5049785;28;20455;-82
2022/03/14 09:02:17;;;;;;;4.75;2.03;;;8.70;65.50;;;;;;5049905;28;20320;-81
2022/03/14 09:04:44;;;;;;;4.65;1.88;;;8.80;65.50;;;;;;5052325;28;20029;-82
2022/03/14 09:07:10;;;;;;;6.15;2.58;;;8.90;65.60;;;;;;5034075;28;20033;-83
2022/03/14 09:09:37;;;;;;;3.67;1.85;;;8.90;65.50;;;;;;5050559;28;20032;-82
2022/03/14 09:12:03;;;;;;;5.50;1.77;;;9.00;65.60;;;;;;5050478;28;20029;-82
2022/03/14 09:14:31;;;;;;;3.88;1.95;;;9.10;65.60;;;;;;5049306;28;20606;-81
2022/03/14 09:16:58;;;;;;;4.78;1.98;;;9.10;65.50;;;;;;5050577;28;20037;-81
2022/03/14 09:19:27;;;;;;;4.97;2.10;;;9.20;65.50;;;;;;5050047;28;20028;-81
2022/03/14 09:21:58;;;;;;;5.35;2.88;;;9.30;65.60;;;;;;5050106;28;20068;-79
2022/03/14 09:24:26;;;;;;;7.22;2.53;;;9.30;65.50;;;;;;5049719;28;20025;-80
2022/03/14 09:26:55;;;;;;;2.88;2.05;;;9.40;65.60;;;;;;5048103;28;20526;-83
2022/03/14 09:29:22;;;;;;;2.95;1.67;;;9.50;65.80;;;;;;5047904;28;20665;-80
2022/03/14 09:31:49;;;;;;;6.25;2.28;;;9.60;65.80;;;;;;5049300;28;20559;-80
2022/03/14 09:34:15;;;;;;;3.40;2.05;;;9.70;66.40;;;;;;5049202;28;20033;-84
2022/03/14 09:36:41;;;;;;;2.50;1.90;;;9.80;65.90;;;;;;5047961;28;20033;-80
2022/03/14 09:39:13;;;;;;;4.47;1.65;;;9.80;65.70;;;;;;5048985;28;20087;-80
2022/03/14 09:41:41;;;;;;;5.38;1.63;;;9.90;65.80;;;;;;5049382;28;20112;-83
2022/03/14 09:44:10;;;;;;;6.43;1.80;;;10.00;65.80;;;;;;5049360;28;20025;-81
2022/03/14 09:46:39;;;;;;;7.53;2.97;;;10.20;66.00;;;;;;5048953;28;20119;-80
2022/03/14 09:49:12;;;;;;;5.72;2.03;;;10.30;65.90;;;;;;5048761;28;20033;-80
2022/03/14 09:51:39;;;;;;;3.17;1.95;;;10.40;65.80;;;;;;5048014;28;20442;-80
2022/03/14 09:54:07;;;;;;;5.18;2.08;;;10.50;65.70;;;;;;5048908;28;20430;-81
2022/03/14 09:56:33;;;;;;;5.15;2.35;;;10.70;65.80;;;;;;5049089;28;20033;-81
2022/03/14 09:59:00;;;;;;;3.35;1.60;;;10.80;65.70;;;;;;5049560;28;20028;-82
2022/03/14 10:01:27;;;;;;;6.20;2.15;;;10.90;65.70;;;;;;5048759;28;20452;-81
2022/03/14 10:03:55;;;;;;;5.20;2.03;;;11.00;65.70;;;;;;5047109;28;20395;-82
2022/03/14 10:06:21;;;;;;;7.70;2.65;;;11.10;65.70;;;;;;5031197;28;20133;-82
2022/03/14 10:08:47;;;;;;;6.22;2.00;;;11.10;65.60;;;;;;5048561;28;20039;-83
2022/03/14 10:11:13;;;;;;;4.05;1.40;;;11.20;65.70;;;;;;5047889;28;20032;-81
2022/03/14 10:13:39;;;;;;;3.70;2.50;;;11.20;65.60;;;;;;5048900;28;20036;-83
2022/03/14 10:16:06;;;;;;;6.55;1.73;;;11.30;65.80;;;;;;5048812;28;20094;-79
2022/03/14 10:18:57;;;;;;;4.32;1.92;;;11.30;65.70;;;;;;5047978;28;20211;-80
2022/03/14 10:21:35;;;;;;;2.50;1.23;;;11.30;65.70;;;;;;5048739;28;20132;-81
2022/03/14 10:24:12;;;;;;;6.55;1.80;;;11.40;65.70;;;;;;5048651;28;20116;-79
2022/03/14 10:26:44;;;;;;;7.47;1.50;;;11.50;65.70;;;;;;5063534;28;20053;-80
2022/03/14 10:29:13;;;;;;;5.97;2.10;;;11.60;65.90;;;;;;5046884;28;20037;-80
2022/03/14 10:31:39;;;;;;;7.15;1.50;;;11.70;65.70;;;;;;5048029;28;20029;-79
2022/03/14 10:34:14;;;;;;;7.22;1.50;;;11.70;65.50;;;;;;5048196;28;20109;-79
2022/03/14 10:36:44;;;;;;;6.63;1.88;;;11.80;65.50;;;;;;5046895;28;20033;-79
2022/03/14 10:39:27;;;;;;;6.82;1.77;;;12.00;65.60;;;;;;5046673;28;20033;-80
2022/03/14 10:42:07;;;;;;;6.70;1.73;;;12.10;65.50;;;;;;5047621;28;20032;-81
2022/03/14 10:44:36;;;;;;;7.10;1.88;;;12.20;65.30;;;;;;5046633;28;20033;-80
2022/03/14 10:47:04;;;;;;;4.80;1.48;;;12.30;65.40;;;;;;5047684;28;20099;-81
2022/03/14 10:49:33;;;;;;;6.60;1.75;;;12.30;65.50;;;;;;5046514;28;20070;-79
2022/03/14 10:52:09;;;;;;;6.25;1.65;;;12.30;65.20;;;;;;5048188;28;20055;-81
2022/03/14 10:54:36;;;;;;;5.85;1.73;;;12.30;65.10;;;;;;5048012;28;20040;-80
2022/03/14 10:57:10;;;;;;;6.10;1.40;;;12.30;65.20;;;;;;5046703;28;20037;-80
2022/03/14 10:59:44;;;;;;;4.85;1.48;;;12.30;65.20;;;;;;5046170;28;20024;-80
2022/03/14 11:02:12;;;;;;;6.68;2.10;;;12.30;65.10;;;;;;5048048;28;20031;-81
2022/03/14 11:04:47;;;;;;;6.10;1.77;;;12.30;65.20;;;;;;5047493;28;20067;-81
2022/03/14 11:07:14;;;;;;;6.20;2.50;;;12.20;65.00;;;;;;5047315;28;20093;-81
2022/03/14 11:09:40;;;;;;;6.78;2.38;;;12.20;65.00;;;;;;5047219;28;20040;-80
2022/03/14 11:12:12;;;;;;;7.18;1.73;;;12.30;65.20;;;;;;5047711;28;20522;-79
2022/03/14 11:14:38;;;;;;;6.15;1.55;;;12.30;65.10;;;;;;5047558;28;20045;-80
2022/03/14 11:17:18;;;;;;;5.57;1.90;;;12.40;65.20;;;;;;5046929;28;20435;-81
2022/03/14 11:19:45;;;;;;;6.55;1.55;;;12.50;65.10;;;;;;5043523;28;20029;-80
2022/03/14 11:22:12;;;;;;;6.85;1.38;;;12.60;65.00;;;;;;5037006;28;20124;-79
2022/03/14 11:24:58;;;;;;;8.32;1.52;;;12.80;65.00;;;;;;5048009;28;20045;-78
2022/03/14 11:27:29;;;;;;;6.63;1.77;;;13.00;65.00;;;;;;5048543;28;20071;-89
2022/03/14 11:30:04;;;;;;;4.15;1.23;;;13.10;64.80;;;;;;5047964;28;20448;-90
2022/03/14 11:32:31;;;;;;;5.55;1.73;;;13.30;64.80;;;;;;5048713;28;20040;-86
2022/03/14 11:35:00;;;;;;;5.70;1.45;;;13.40;64.80;;;;;;5049092;28;20111;-85
2022/03/14 11:37:30;;;;;;;5.80;1.67;;;13.60;65.00;;;;;;5048597;28;20245;-85
2022/03/14 11:39:58;;;;;;;10.90;3.10;;;13.80;64.90;;;;;;5047182;28;20021;-80
2022/03/14 11:42:25;;;;;;;6.38;1.10;;;14.00;64.90;;;;;;5047966;28;20083;-84
2022/03/14 11:44:54;;;;;;;5.95;1.30;;;14.10;64.80;;;;;;5048247;28;20029;-85
2022/03/14 11:47:21;;;;;;;5.97;1.30;;;14.20;64.60;;;;;;5047075;28;20694;-84
2022/03/14 11:49:48;;;;;;;4.20;1.17;;;14.40;64.70;;;;;;5046085;28;20205;-84
2022/03/14 11:52:19;;;;;;;4.68;1.25;;;14.40;64.40;;;;;;5047993;28;20082;-84
2022/03/14 11:54:48;;;;;;;8.70;2.07;;;14.50;64.40;;;;;;5047531;28;20086;-83
2022/03/14 11:57:41;;;;;;;9.10;2.95;;;14.60;64.50;;;;;;5047810;28;20041;-81
2022/03/14 12:00:24;;;;;;;5.57;2.45;;;14.70;64.30;;;;;;5045960;28;20141;-81
2022/03/14 12:03:33;;;;;;;7.30;2.40;;;14.80;64.30;;;;;;5048680;28;20143;-82
2022/03/14 12:05:59;;;;;;;5.13;1.27;;;14.90;64.20;;;;;;5057562;28;20044;-80
2022/03/14 12:08:46;;;;;;;6.57;1.67;;;14.90;64.10;;;;;;5049634;28;20033;-78
2022/03/14 12:11:37;;;;;;;6.20;1.98;;;14.90;63.90;;;;;;5064544;28;20111;-79
2022/03/14 12:14:04;;;;;;;4.13;1.40;;;14.90;63.90;;;;;;5066754;28;20055;-79
2022/03/14 12:16:37;;;;;;;3.08;1.17;;;14.90;64.40;;;;;;5064734;28;20038;-89
2022/03/14 12:19:29;;;;;;;3.95;1.27;;;14.90;63.80;;;;;;5049705;28;20044;-81
2022/03/14 12:21:57;;;;;;;6.13;1.45;;;14.90;63.80;;;;;;5036788;28;20048;-80
2022/03/14 12:24:35;;;;;;;7.28;2.28;;;14.90;63.90;;;;;;5056549;28;20040;-83
2022/03/14 12:27:02;;;;;;;3.72;1.30;;;14.90;63.80;;;;;;5047708;28;20116;-84
2022/03/14 12:29:40;;;;;;;5.90;1.58;;;14.90;63.80;;;;;;5051424;28;20025;-88
2022/03/14 12:32:34;;;;;;;5.90;1.70;;;14.90;63.50;;;;;;5042193;28;20030;-85
2022/03/14 12:35:06;;;;;;;3.90;1.20;;;14.90;63.40;;;;;;5050671;28;20580;-88
2022/03/14 12:37:35;;;;;;;3.53;1.20;;;14.90;63.60;;;;;;5051331;28;20029;-89
2022/03/14 12:40:06;;;;;;;7.05;2.58;;;14.90;63.60;;;;;;5031600;28;20120;-82
2022/03/14 12:42:41;;;;;;;4.80;1.90;;;14.80;63.50;;;;;;5029889;28;20017;-85
2022/03/14 12:45:18;;;;;;;3.28;1.10;;;14.80;63.50;;;;;;5029943;28;20036;-81
2022/03/14 12:47:52;;;;;;;7.88;1.98;;;14.70;63.50;;;;;;5064264;28;20704;-82
2022/03/14 12:50:43;;;;;;;6.00;1.60;;;14.70;63.50;;;;;;5032363;28;20434;-82
2022/03/14 12:53:30;;;;;;;4.28;1.35;;;14.70;63.50;;;;;;5051006;28;20024;-83
2022/03/14 12:56:01;;;;;;;7.05;1.63;;;14.70;63.40;;;;;;5047949;28;20032;-84
2022/03/14 12:58:28;;;;;;;5.68;1.30;;;14.70;63.50;;;;;;5050444;28;20033;-84
2022/03/14 13:00:56;;;;;;;5.63;1.08;;;14.70;63.40;;;;;;5033704;28;20036;-86
2022/03/14 13:03:31;;;;;;;3.22;1.52;;;14.70;63.30;;;;;;5052370;28;20454;-89